sensor_id;sensor_type;location;lat;lon;timestamp;P1;durP1;ratioP1;P2;durP2;ratioP2
5898;SDS011;2975;50.956;6.962;2023-06-22T00:00:19;3.85;;;3.38;;
5898;SDS011;2975;50.956;6.962;2023-06-22T00:02:48;4.40;;;3.63;;
5898;SDS011;2975;50.956;6.962;2023-06-22T00:05:24;4.53;;;3.70;;
5898;SDS011;2975;50.956;6.962;2023-06-22T00:07:57;3.60;;;3.30;;
5898;SDS011;2975;50.956;6.962;2023-06-22T00:10:31;3.75;;;3.45;;
5898;SDS011;2975;50.956;6.962;2023-06-22T00:13:09;5.05;;;3.38;;
5898;SDS011;2975;50.956;6.962;2023-06-22T00:15:38;4.22;;;3.35;;
5898;SDS011;2975;50.956;6.962;2023-06-22T00:18:07;4.45;;;3.45;;
5898;SDS011;2975;50.956;6.962;2023-06-22T00:20:41;5.30;;;3.92;;
5898;SDS011;2975;50.956;6.962;2023-06-22T00:23:07;3.28;;;2.97;;
5898;SDS011;2975;50.956;6.962;2023-06-22T00:25:39;4.68;;;3.53;;
5898;SDS011;2975;50.956;6.962;2023-06-22T00:28:05;6.35;;;3.70;;
5898;SDS011;2975;50.956;6.962;2023-06-22T00:30:40;3.08;;;2.83;;
5898;SDS011;2975;50.956;6.962;2023-06-22T00:33:37;5.40;;;3.42;;
5898;SDS011;2975;50.956;6.962;2023-06-22T00:36:20;6.35;;;4.10;;
5898;SDS011;2975;50.956;6.962;2023-06-22T00:38:50;6.15;;;3.90;;
5898;SDS011;2975;50.956;6.962;2023-06-22T00:41:20;3.95;;;3.53;;
5898;SDS011;2975;50.956;6.962;2023-06-22T00:43:53;5.95;;;3.40;;
5898;SDS011;2975;50.956;6.962;2023-06-22T00:46:22;4.35;;;3.35;;
5898;SDS011;2975;50.956;6.962;2023-06-22T00:48:49;3.70;;;3.33;;
5898;SDS011;2975;50.956;6.962;2023-06-22T00:51:22;4.85;;;3.63;;
5898;SDS011;2975;50.956;6.962;2023-06-22T00:53:51;4.25;;;3.72;;
5898;SDS011;2975;50.956;6.962;2023-06-22T00:56:20;4.40;;;3.58;;
5898;SDS011;2975;50.956;6.962;2023-06-22T00:58:49;5.20;;;3.20;;
5898;SDS011;2975;50.956;6.962;2023-06-22T01:01:20;3.75;;;3.05;;
5898;SDS011;2975;50.956;6.962;2023-06-22T01:03:51;3.60;;;3.28;;
5898;SDS011;2975;50.956;6.962;2023-06-22T01:06:19;5.05;;;3.42;;
5898;SDS011;2975;50.956;6.962;2023-06-22T01:09:00;4.80;;;3.55;;
5898;SDS011;2975;50.956;6.962;2023-06-22T01:11:39;4.35;;;3.70;;
5898;SDS011;2975;50.956;6.962;2023-06-22T01:14:12;4.55;;;3.53;;
5898;SDS011;2975;50.956;6.962;2023-06-22T01:17:02;3.28;;;2.97;;
5898;SDS011;2975;50.956;6.962;2023-06-22T01:19:45;4.45;;;3.33;;
5898;SDS011;2975;50.956;6.962;2023-06-22T01:22:20;3.38;;;3.03;;
5898;SDS011;2975;50.956;6.962;2023-06-22T01:27:40;5.18;;;3.30;;
5898;SDS011;2975;50.956;6.962;2023-06-22T01:30:34;3.92;;;3.40;;
5898;SDS011;2975;50.956;6.962;2023-06-22T01:33:08;5.35;;;3.58;;
5898;SDS011;2975;50.956;6.962;2023-06-22T01:35:46;4.97;;;3.58;;
5898;SDS011;2975;50.956;6.962;2023-06-22T01:38:21;5.50;;;4.13;;
5898;SDS011;2975;50.956;6.962;2023-06-22T01:40:50;5.38;;;3.70;;
5898;SDS011;2975;50.956;6.962;2023-06-22T01:43:27;5.57;;;3.42;;
5898;SDS011;2975;50.956;6.962;2023-06-22T01:46:02;3.75;;;3.33;;
5898;SDS011;2975;50.956;6.962;2023-06-22T01:48:33;4.10;;;3.03;;
5898;SDS011;2975;50.956;6.962;2023-06-22T01:51:11;3.97;;;3.30;;
5898;SDS011;2975;50.956;6.962;2023-06-22T01:53:42;3.78;;;2.95;;
5898;SDS011;2975;50.956;6.962;2023-06-22T01:56:08;3.97;;;3.58;;
5898;SDS011;2975;50.956;6.962;2023-06-22T01:58:41;4.82;;;3.53;;
5898;SDS011;2975;50.956;6.962;2023-06-22T02:01:12;3.30;;;3.03;;
5898;SDS011;2975;50.956;6.962;2023-06-22T02:03:45;4.25;;;3.53;;
5898;SDS011;2975;50.956;6.962;2023-06-22T02:06:23;5.40;;;4.13;;
5898;SDS011;2975;50.956;6.962;2023-06-22T02:09:07;3.92;;;3.40;;
5898;SDS011;2975;50.956;6.962;2023-06-22T02:11:37;3.40;;;3.10;;
5898;SDS011;2975;50.956;6.962;2023-06-22T02:14:08;4.50;;;3.03;;
5898;SDS011;2975;50.956;6.962;2023-06-22T02:16:40;3.92;;;3.30;;
5898;SDS011;2975;50.956;6.962;2023-06-22T02:19:13;5.18;;;3.65;;
5898;SDS011;2975;50.956;6.962;2023-06-22T02:21:44;4.97;;;3.40;;
5898;SDS011;2975;50.956;6.962;2023-06-22T02:24:12;5.32;;;3.42;;
5898;SDS011;2975;50.956;6.962;2023-06-22T02:26:42;4.70;;;3.50;;
5898;SDS011;2975;50.956;6.962;2023-06-22T02:29:10;3.97;;;3.67;;
5898;SDS011;2975;50.956;6.962;2023-06-22T02:31:38;5.10;;;3.33;;
5898;SDS011;2975;50.956;6.962;2023-06-22T02:34:04;5.00;;;3.30;;
5898;SDS011;2975;50.956;6.962;2023-06-22T02:36:29;3.60;;;3.30;;
5898;SDS011;2975;50.956;6.962;2023-06-22T02:38:55;4.85;;;3.42;;
5898;SDS011;2975;50.956;6.962;2023-06-22T02:41:26;5.13;;;3.53;;
5898;SDS011;2975;50.956;6.962;2023-06-22T02:43:51;5.40;;;3.25;;
5898;SDS011;2975;50.956;6.962;2023-06-22T02:46:17;4.35;;;3.22;;
5898;SDS011;2975;50.956;6.962;2023-06-22T02:48:42;4.15;;;3.55;;
5898;SDS011;2975;50.956;6.962;2023-06-22T02:51:08;4.13;;;3.35;;
5898;SDS011;2975;50.956;6.962;2023-06-22T02:53:34;5.18;;;3.20;;
5898;SDS011;2975;50.956;6.962;2023-06-22T02:56:01;4.47;;;3.57;;
5898;SDS011;2975;50.956;6.962;2023-06-22T02:58:30;3.78;;;3.13;;
5898;SDS011;2975;50.956;6.962;2023-06-22T03:00:58;3.63;;;3.10;;
5898;SDS011;2975;50.956;6.962;2023-06-22T03:03:29;4.03;;;3.08;;
5898;SDS011;2975;50.956;6.962;2023-06-22T03:05:55;4.78;;;3.28;;
5898;SDS011;2975;50.956;6.962;2023-06-22T03:08:21;3.83;;;2.90;;
5898;SDS011;2975;50.956;6.962;2023-06-22T03:10:46;3.58;;;3.28;;
5898;SDS011;2975;50.956;6.962;2023-06-22T03:13:12;4.40;;;3.10;;
5898;SDS011;2975;50.956;6.962;2023-06-22T03:15:38;4.22;;;2.97;;
5898;SDS011;2975;50.956;6.962;2023-06-22T03:18:03;4.40;;;2.88;;
5898;SDS011;2975;50.956;6.962;2023-06-22T03:20:30;5.80;;;3.13;;
5898;SDS011;2975;50.956;6.962;2023-06-22T03:22:58;5.35;;;3.30;;
5898;SDS011;2975;50.956;6.962;2023-06-22T03:25:24;3.30;;;3.00;;
5898;SDS011;2975;50.956;6.962;2023-06-22T03:27:50;4.40;;;3.47;;
5898;SDS011;2975;50.956;6.962;2023-06-22T03:30:15;3.10;;;2.78;;
5898;SDS011;2975;50.956;6.962;2023-06-22T03:32:41;4.20;;;3.10;;
5898;SDS011;2975;50.956;6.962;2023-06-22T03:35:08;3.93;;;3.43;;
5898;SDS011;2975;50.956;6.962;2023-06-22T03:37:34;3.90;;;3.10;;
5898;SDS011;2975;50.956;6.962;2023-06-22T03:39:59;4.43;;;3.17;;
5898;SDS011;2975;50.956;6.962;2023-06-22T03:42:25;6.43;;;3.28;;
5898;SDS011;2975;50.956;6.962;2023-06-22T03:44:51;4.15;;;3.05;;
5898;SDS011;2975;50.956;6.962;2023-06-22T03:47:17;3.67;;;3.35;;
5898;SDS011;2975;50.956;6.962;2023-06-22T03:49:42;5.05;;;3.00;;
5898;SDS011;2975;50.956;6.962;2023-06-22T03:52:08;4.68;;;3.25;;
5898;SDS011;2975;50.956;6.962;2023-06-22T03:54:35;3.33;;;3.03;;
5898;SDS011;2975;50.956;6.962;2023-06-22T03:57:01;4.10;;;3.28;;
5898;SDS011;2975;50.956;6.962;2023-06-22T03:59:27;4.65;;;3.80;;
5898;SDS011;2975;50.956;6.962;2023-06-22T04:01:52;6.70;;;3.45;;
5898;SDS011;2975;50.956;6.962;2023-06-22T04:04:18;5.93;;;3.47;;
5898;SDS011;2975;50.956;6.962;2023-06-22T04:06:44;5.18;;;3.20;;
5898;SDS011;2975;50.956;6.962;2023-06-22T04:09:09;4.60;;;3.88;;
5898;SDS011;2975;50.956;6.962;2023-06-22T04:11:35;4.07;;;3.60;;
5898;SDS011;2975;50.956;6.962;2023-06-22T04:14:00;5.70;;;3.33;;
5898;SDS011;2975;50.956;6.962;2023-06-22T04:16:26;7.00;;;3.28;;
5898;SDS011;2975;50.956;6.962;2023-06-22T04:18:52;4.65;;;4.00;;
5898;SDS011;2975;50.956;6.962;2023-06-22T04:21:17;5.00;;;4.50;;
5898;SDS011;2975;50.956;6.962;2023-06-22T04:23:44;6.82;;;5.00;;
5898;SDS011;2975;50.956;6.962;2023-06-22T04:26:11;5.20;;;4.55;;
5898;SDS011;2975;50.956;6.962;2023-06-22T04:28:36;4.55;;;4.05;;
5898;SDS011;2975;50.956;6.962;2023-06-22T04:31:02;5.72;;;4.20;;
5898;SDS011;2975;50.956;6.962;2023-06-22T04:33:28;5.00;;;4.50;;
5898;SDS011;2975;50.956;6.962;2023-06-22T04:35:54;5.78;;;4.65;;
5898;SDS011;2975;50.956;6.962;2023-06-22T04:38:22;7.03;;;5.07;;
5898;SDS011;2975;50.956;6.962;2023-06-22T04:40:49;8.40;;;5.50;;
5898;SDS011;2975;50.956;6.962;2023-06-22T04:43:14;6.03;;;5.38;;
5898;SDS011;2975;50.956;6.962;2023-06-22T04:45:40;8.35;;;5.03;;
5898;SDS011;2975;50.956;6.962;2023-06-22T04:48:06;5.60;;;5.05;;
5898;SDS011;2975;50.956;6.962;2023-06-22T04:50:33;7.88;;;5.38;;
5898;SDS011;2975;50.956;6.962;2023-06-22T04:52:59;6.00;;;4.45;;
5898;SDS011;2975;50.956;6.962;2023-06-22T04:55:24;8.57;;;5.30;;
5898;SDS011;2975;50.956;6.962;2023-06-22T04:57:50;5.90;;;5.20;;
5898;SDS011;2975;50.956;6.962;2023-06-22T05:00:17;5.68;;;4.93;;
5898;SDS011;2975;50.956;6.962;2023-06-22T05:02:44;6.60;;;4.97;;
5898;SDS011;2975;50.956;6.962;2023-06-22T05:05:11;5.70;;;4.93;;
5898;SDS011;2975;50.956;6.962;2023-06-22T05:07:43;6.32;;;5.72;;
5898;SDS011;2975;50.956;6.962;2023-06-22T05:10:13;6.85;;;5.47;;
5898;SDS011;2975;50.956;6.962;2023-06-22T05:12:39;8.95;;;5.78;;
5898;SDS011;2975;50.956;6.962;2023-06-22T05:15:06;5.97;;;4.93;;
5898;SDS011;2975;50.956;6.962;2023-06-22T05:17:32;6.30;;;5.70;;
5898;SDS011;2975;50.956;6.962;2023-06-22T05:19:58;6.28;;;5.43;;
5898;SDS011;2975;50.956;6.962;2023-06-22T05:22:24;6.72;;;5.00;;
5898;SDS011;2975;50.956;6.962;2023-06-22T05:24:49;6.18;;;5.57;;
5898;SDS011;2975;50.956;6.962;2023-06-22T05:27:15;7.05;;;6.35;;
5898;SDS011;2975;50.956;6.962;2023-06-22T05:29:41;10.43;;;6.10;;
5898;SDS011;2975;50.956;6.962;2023-06-22T05:32:07;7.32;;;6.45;;
5898;SDS011;2975;50.956;6.962;2023-06-22T05:34:33;7.07;;;6.22;;
5898;SDS011;2975;50.956;6.962;2023-06-22T05:36:59;9.20;;;6.32;;
5898;SDS011;2975;50.956;6.962;2023-06-22T05:39:25;9.60;;;5.40;;
5898;SDS011;2975;50.956;6.962;2023-06-22T05:41:51;6.57;;;5.93;;
5898;SDS011;2975;50.956;6.962;2023-06-22T05:44:17;6.05;;;5.40;;
5898;SDS011;2975;50.956;6.962;2023-06-22T05:46:43;7.43;;;5.53;;
5898;SDS011;2975;50.956;6.962;2023-06-22T05:49:14;8.30;;;5.82;;
5898;SDS011;2975;50.956;6.962;2023-06-22T05:51:40;9.00;;;6.72;;
5898;SDS011;2975;50.956;6.962;2023-06-22T05:54:06;6.63;;;6.00;;
5898;SDS011;2975;50.956;6.962;2023-06-22T05:56:33;6.65;;;6.05;;
5898;SDS011;2975;50.956;6.962;2023-06-22T05:58:59;6.72;;;6.13;;
5898;SDS011;2975;50.956;6.962;2023-06-22T06:01:25;10.65;;;6.32;;
5898;SDS011;2975;50.956;6.962;2023-06-22T06:03:51;7.95;;;5.60;;
5898;SDS011;2975;50.956;6.962;2023-06-22T06:06:17;7.40;;;5.95;;
5898;SDS011;2975;50.956;6.962;2023-06-22T06:08:46;10.35;;;5.00;;
5898;SDS011;2975;50.956;6.962;2023-06-22T06:11:11;6.10;;;4.88;;
5898;SDS011;2975;50.956;6.962;2023-06-22T06:13:37;9.32;;;5.50;;
5898;SDS011;2975;50.956;6.962;2023-06-22T06:16:03;7.50;;;5.63;;
5898;SDS011;2975;50.956;6.962;2023-06-22T06:18:28;5.80;;;4.63;;
5898;SDS011;2975;50.956;6.962;2023-06-22T06:20:54;6.65;;;5.30;;
5898;SDS011;2975;50.956;6.962;2023-06-22T06:23:19;5.65;;;4.90;;
5898;SDS011;2975;50.956;6.962;2023-06-22T06:25:45;6.90;;;6.20;;
5898;SDS011;2975;50.956;6.962;2023-06-22T06:28:11;6.70;;;5.82;;
5898;SDS011;2975;50.956;6.962;2023-06-22T06:30:36;7.07;;;5.43;;
5898;SDS011;2975;50.956;6.962;2023-06-22T06:33:02;6.43;;;5.45;;
5898;SDS011;2975;50.956;6.962;2023-06-22T06:35:29;6.03;;;5.45;;
5898;SDS011;2975;50.956;6.962;2023-06-22T06:37:55;9.07;;;5.30;;
5898;SDS011;2975;50.956;6.962;2023-06-22T06:40:21;7.75;;;5.78;;
5898;SDS011;2975;50.956;6.962;2023-06-22T06:42:47;5.40;;;4.90;;
5898;SDS011;2975;50.956;6.962;2023-06-22T06:45:17;5.28;;;4.78;;
5898;SDS011;2975;50.956;6.962;2023-06-22T06:47:44;6.10;;;5.50;;
5898;SDS011;2975;50.956;6.962;2023-06-22T06:50:10;6.80;;;6.03;;
5898;SDS011;2975;50.956;6.962;2023-06-22T06:52:36;6.05;;;5.38;;
5898;SDS011;2975;50.956;6.962;2023-06-22T06:55:02;5.68;;;5.18;;
5898;SDS011;2975;50.956;6.962;2023-06-22T06:57:29;7.18;;;5.85;;
5898;SDS011;2975;50.956;6.962;2023-06-22T06:59:55;6.28;;;5.68;;
5898;SDS011;2975;50.956;6.962;2023-06-22T07:02:21;8.93;;;5.63;;
5898;SDS011;2975;50.956;6.962;2023-06-22T07:04:47;8.13;;;6.00;;
5898;SDS011;2975;50.956;6.962;2023-06-22T07:07:13;7.35;;;5.60;;
5898;SDS011;2975;50.956;6.962;2023-06-22T07:09:39;7.07;;;5.40;;
5898;SDS011;2975;50.956;6.962;2023-06-22T07:12:05;7.03;;;6.25;;
5898;SDS011;2975;50.956;6.962;2023-06-22T07:14:31;9.13;;;6.40;;
5898;SDS011;2975;50.956;6.962;2023-06-22T07:16:57;6.85;;;5.93;;
5898;SDS011;2975;50.956;6.962;2023-06-22T07:19:29;6.15;;;5.55;;
5898;SDS011;2975;50.956;6.962;2023-06-22T07:21:56;8.05;;;5.40;;
5898;SDS011;2975;50.956;6.962;2023-06-22T07:24:22;9.25;;;5.60;;
5898;SDS011;2975;50.956;6.962;2023-06-22T07:26:49;7.05;;;5.15;;
5898;SDS011;2975;50.956;6.962;2023-06-22T07:29:19;7.82;;;5.88;;
5898;SDS011;2975;50.956;6.962;2023-06-22T07:31:46;7.93;;;5.90;;
5898;SDS011;2975;50.956;6.962;2023-06-22T07:34:12;7.68;;;6.22;;
5898;SDS011;2975;50.956;6.962;2023-06-22T07:36:38;8.27;;;5.68;;
5898;SDS011;2975;50.956;6.962;2023-06-22T07:39:04;6.38;;;5.35;;
5898;SDS011;2975;50.956;6.962;2023-06-22T07:41:30;6.85;;;5.80;;
5898;SDS011;2975;50.956;6.962;2023-06-22T07:43:56;6.10;;;5.47;;
5898;SDS011;2975;50.956;6.962;2023-06-22T07:46:22;6.53;;;5.75;;
5898;SDS011;2975;50.956;6.962;2023-06-22T07:48:48;6.40;;;5.80;;
5898;SDS011;2975;50.956;6.962;2023-06-22T07:51:13;7.78;;;5.97;;
5898;SDS011;2975;50.956;6.962;2023-06-22T07:53:43;6.18;;;5.55;;
5898;SDS011;2975;50.956;6.962;2023-06-22T07:56:12;7.45;;;5.90;;
5898;SDS011;2975;50.956;6.962;2023-06-22T07:58:39;6.53;;;5.85;;
5898;SDS011;2975;50.956;6.962;2023-06-22T08:01:05;6.35;;;5.72;;
5898;SDS011;2975;50.956;6.962;2023-06-22T08:03:31;7.18;;;6.30;;
5898;SDS011;2975;50.956;6.962;2023-06-22T08:05:57;6.35;;;5.57;;
5898;SDS011;2975;50.956;6.962;2023-06-22T08:08:23;6.38;;;5.65;;
5898;SDS011;2975;50.956;6.962;2023-06-22T08:10:48;9.13;;;5.72;;
5898;SDS011;2975;50.956;6.962;2023-06-22T08:13:14;6.57;;;5.55;;
5898;SDS011;2975;50.956;6.962;2023-06-22T08:15:39;8.02;;;5.95;;
5898;SDS011;2975;50.956;6.962;2023-06-22T08:18:05;10.38;;;5.72;;
5898;SDS011;2975;50.956;6.962;2023-06-22T08:20:31;32.45;;;7.90;;
5898;SDS011;2975;50.956;6.962;2023-06-22T08:22:57;6.30;;;5.70;;
5898;SDS011;2975;50.956;6.962;2023-06-22T08:25:25;6.53;;;5.57;;
5898;SDS011;2975;50.956;6.962;2023-06-22T08:27:51;7.45;;;6.57;;
5898;SDS011;2975;50.956;6.962;2023-06-22T08:30:16;8.07;;;5.78;;
5898;SDS011;2975;50.956;6.962;2023-06-22T08:32:43;6.72;;;5.90;;
5898;SDS011;2975;50.956;6.962;2023-06-22T08:35:09;7.97;;;6.25;;
5898;SDS011;2975;50.956;6.962;2023-06-22T08:37:35;7.38;;;6.03;;
5898;SDS011;2975;50.956;6.962;2023-06-22T08:40:01;7.88;;;5.68;;
5898;SDS011;2975;50.956;6.962;2023-06-22T08:42:37;8.98;;;6.22;;
5898;SDS011;2975;50.956;6.962;2023-06-22T08:45:05;6.65;;;6.00;;
5898;SDS011;2975;50.956;6.962;2023-06-22T08:47:31;6.28;;;5.68;;
5898;SDS011;2975;50.956;6.962;2023-06-22T08:49:57;7.25;;;6.03;;
5898;SDS011;2975;50.956;6.962;2023-06-22T08:52:23;7.25;;;6.03;;
5898;SDS011;2975;50.956;6.962;2023-06-22T08:54:49;7.85;;;6.20;;
5898;SDS011;2975;50.956;6.962;2023-06-22T08:57:15;6.97;;;6.28;;
5898;SDS011;2975;50.956;6.962;2023-06-22T08:59:41;6.72;;;6.03;;
5898;SDS011;2975;50.956;6.962;2023-06-22T09:02:07;6.65;;;5.95;;
5898;SDS011;2975;50.956;6.962;2023-06-22T09:04:32;6.15;;;5.55;;
5898;SDS011;2975;50.956;6.962;2023-06-22T09:07:02;6.43;;;5.60;;
5898;SDS011;2975;50.956;6.962;2023-06-22T09:09:28;6.18;;;5.63;;
5898;SDS011;2975;50.956;6.962;2023-06-22T09:11:54;5.88;;;5.28;;
5898;SDS011;2975;50.956;6.962;2023-06-22T09:14:20;6.00;;;5.40;;
5898;SDS011;2975;50.956;6.962;2023-06-22T09:16:45;7.32;;;5.30;;
5898;SDS011;2975;50.956;6.962;2023-06-22T09:19:11;6.57;;;5.18;;
5898;SDS011;2975;50.956;6.962;2023-06-22T09:21:37;5.63;;;5.13;;
5898;SDS011;2975;50.956;6.962;2023-06-22T09:24:03;5.80;;;5.20;;
5898;SDS011;2975;50.956;6.962;2023-06-22T09:26:28;6.88;;;6.18;;
5898;SDS011;2975;50.956;6.962;2023-06-22T09:28:54;6.35;;;5.45;;
5898;SDS011;2975;50.956;6.962;2023-06-22T09:31:20;6.22;;;5.45;;
5898;SDS011;2975;50.956;6.962;2023-06-22T09:33:55;7.07;;;5.40;;
5898;SDS011;2975;50.956;6.962;2023-06-22T09:36:20;5.90;;;5.20;;
5898;SDS011;2975;50.956;6.962;2023-06-22T09:38:47;8.73;;;5.35;;
5898;SDS011;2975;50.956;6.962;2023-06-22T09:41:13;5.85;;;5.25;;
5898;SDS011;2975;50.956;6.962;2023-06-22T09:43:39;7.20;;;5.03;;
5898;SDS011;2975;50.956;6.962;2023-06-22T09:46:04;5.68;;;5.10;;
5898;SDS011;2975;50.956;6.962;2023-06-22T09:48:32;7.75;;;5.00;;
5898;SDS011;2975;50.956;6.962;2023-06-22T09:50:57;6.65;;;5.03;;
5898;SDS011;2975;50.956;6.962;2023-06-22T09:53:23;5.93;;;4.93;;
5898;SDS011;2975;50.956;6.962;2023-06-22T09:55:48;5.85;;;5.28;;
5898;SDS011;2975;50.956;6.962;2023-06-22T09:58:14;5.93;;;5.32;;
5898;SDS011;2975;50.956;6.962;2023-06-22T10:00:39;5.22;;;4.80;;
5898;SDS011;2975;50.956;6.962;2023-06-22T10:03:06;10.63;;;5.18;;
5898;SDS011;2975;50.956;6.962;2023-06-22T10:05:32;5.13;;;4.65;;
5898;SDS011;2975;50.956;6.962;2023-06-22T10:07:58;7.55;;;5.25;;
5898;SDS011;2975;50.956;6.962;2023-06-22T10:10:24;6.93;;;5.18;;
5898;SDS011;2975;50.956;6.962;2023-06-22T10:12:56;5.95;;;4.97;;
5898;SDS011;2975;50.956;6.962;2023-06-22T10:15:23;6.70;;;5.35;;
5898;SDS011;2975;50.956;6.962;2023-06-22T10:17:48;7.38;;;6.03;;
5898;SDS011;2975;50.956;6.962;2023-06-22T10:20:14;6.18;;;5.47;;
5898;SDS011;2975;50.956;6.962;2023-06-22T10:22:43;6.93;;;5.43;;
5898;SDS011;2975;50.956;6.962;2023-06-22T10:25:10;5.88;;;5.35;;
5898;SDS011;2975;50.956;6.962;2023-06-22T10:27:37;6.03;;;5.38;;
5898;SDS011;2975;50.956;6.962;2023-06-22T10:30:05;6.55;;;5.95;;
5898;SDS011;2975;50.956;6.962;2023-06-22T10:32:32;7.40;;;5.53;;
5898;SDS011;2975;50.956;6.962;2023-06-22T10:34:58;6.55;;;5.68;;
5898;SDS011;2975;50.956;6.962;2023-06-22T10:37:23;6.82;;;4.95;;
5898;SDS011;2975;50.956;6.962;2023-06-22T10:39:49;6.28;;;5.57;;
5898;SDS011;2975;50.956;6.962;2023-06-22T10:42:14;9.60;;;6.05;;
5898;SDS011;2975;50.956;6.962;2023-06-22T10:44:40;10.95;;;6.43;;
5898;SDS011;2975;50.956;6.962;2023-06-22T10:47:08;8.25;;;6.45;;
5898;SDS011;2975;50.956;6.962;2023-06-22T10:49:33;8.20;;;6.90;;
5898;SDS011;2975;50.956;6.962;2023-06-22T10:51:59;16.25;;;8.25;;
5898;SDS011;2975;50.956;6.962;2023-06-22T10:54:25;13.20;;;7.60;;
5898;SDS011;2975;50.956;6.962;2023-06-22T10:56:50;12.65;;;7.95;;
5898;SDS011;2975;50.956;6.962;2023-06-22T10:59:16;11.65;;;7.45;;
5898;SDS011;2975;50.956;6.962;2023-06-22T11:01:41;11.02;;;8.00;;
5898;SDS011;2975;50.956;6.962;2023-06-22T11:04:07;14.65;;;8.80;;
5898;SDS011;2975;50.956;6.962;2023-06-22T11:06:32;16.58;;;10.23;;
5898;SDS011;2975;50.956;6.962;2023-06-22T11:08:58;15.25;;;10.73;;
5898;SDS011;2975;50.956;6.962;2023-06-22T11:11:25;16.33;;;10.70;;
5898;SDS011;2975;50.956;6.962;2023-06-22T11:13:52;13.52;;;10.13;;
5898;SDS011;2975;50.956;6.962;2023-06-22T11:16:18;13.85;;;11.95;;
5898;SDS011;2975;50.956;6.962;2023-06-22T11:18:43;17.70;;;10.10;;
5898;SDS011;2975;50.956;6.962;2023-06-22T11:21:09;14.25;;;11.07;;
5898;SDS011;2975;50.956;6.962;2023-06-22T11:23:34;13.23;;;10.27;;
5898;SDS011;2975;50.956;6.962;2023-06-22T11:26:00;15.07;;;11.85;;
5898;SDS011;2975;50.956;6.962;2023-06-22T11:28:25;13.18;;;10.48;;
5898;SDS011;2975;50.956;6.962;2023-06-22T11:30:51;12.68;;;10.40;;
5898;SDS011;2975;50.956;6.962;2023-06-22T11:33:17;16.30;;;10.00;;
5898;SDS011;2975;50.956;6.962;2023-06-22T11:35:42;14.45;;;10.07;;
5898;SDS011;2975;50.956;6.962;2023-06-22T11:38:08;12.23;;;9.23;;
5898;SDS011;2975;50.956;6.962;2023-06-22T11:40:33;11.15;;;9.10;;
5898;SDS011;2975;50.956;6.962;2023-06-22T11:42:59;12.10;;;8.85;;
5898;SDS011;2975;50.956;6.962;2023-06-22T11:45:25;10.70;;;9.25;;
5898;SDS011;2975;50.956;6.962;2023-06-22T11:47:50;12.02;;;9.68;;
5898;SDS011;2975;50.956;6.962;2023-06-22T11:50:16;12.45;;;8.95;;
5898;SDS011;2975;50.956;6.962;2023-06-22T11:52:42;13.30;;;9.57;;
5898;SDS011;2975;50.956;6.962;2023-06-22T11:55:07;15.00;;;9.52;;
5898;SDS011;2975;50.956;6.962;2023-06-22T11:57:33;12.57;;;10.15;;
5898;SDS011;2975;50.956;6.962;2023-06-22T12:00:00;12.70;;;11.40;;
5898;SDS011;2975;50.956;6.962;2023-06-22T12:02:26;14.00;;;11.05;;
5898;SDS011;2975;50.956;6.962;2023-06-22T12:04:51;12.68;;;11.13;;
5898;SDS011;2975;50.956;6.962;2023-06-22T12:07:17;12.63;;;10.30;;
5898;SDS011;2975;50.956;6.962;2023-06-22T12:09:43;12.68;;;9.85;;
5898;SDS011;2975;50.956;6.962;2023-06-22T12:12:09;10.55;;;9.45;;
5898;SDS011;2975;50.956;6.962;2023-06-22T12:14:35;12.93;;;10.30;;
5898;SDS011;2975;50.956;6.962;2023-06-22T12:17:00;11.82;;;9.20;;
5898;SDS011;2975;50.956;6.962;2023-06-22T12:19:26;13.65;;;9.93;;
5898;SDS011;2975;50.956;6.962;2023-06-22T12:21:51;11.20;;;9.43;;
5898;SDS011;2975;50.956;6.962;2023-06-22T12:24:17;14.68;;;10.75;;
5898;SDS011;2975;50.956;6.962;2023-06-22T12:26:42;12.18;;;9.27;;
5898;SDS011;2975;50.956;6.962;2023-06-22T12:29:09;11.43;;;8.82;;
5898;SDS011;2975;50.956;6.962;2023-06-22T12:31:35;12.55;;;9.98;;
5898;SDS011;2975;50.956;6.962;2023-06-22T12:34:03;13.35;;;9.65;;
5898;SDS011;2975;50.956;6.962;2023-06-22T12:36:29;10.93;;;9.82;;
5898;SDS011;2975;50.956;6.962;2023-06-22T12:38:54;14.25;;;9.85;;
5898;SDS011;2975;50.956;6.962;2023-06-22T12:41:20;11.30;;;9.77;;
5898;SDS011;2975;50.956;6.962;2023-06-22T12:43:46;14.43;;;10.50;;
5898;SDS011;2975;50.956;6.962;2023-06-22T12:46:11;10.18;;;9.15;;
5898;SDS011;2975;50.956;6.962;2023-06-22T12:48:37;11.77;;;9.40;;
5898;SDS011;2975;50.956;6.962;2023-06-22T12:51:07;9.77;;;8.73;;
5898;SDS011;2975;50.956;6.962;2023-06-22T12:53:34;13.48;;;9.23;;
5898;SDS011;2975;50.956;6.962;2023-06-22T12:56:00;9.40;;;8.10;;
5898;SDS011;2975;50.956;6.962;2023-06-22T12:58:26;12.70;;;8.88;;
5898;SDS011;2975;50.956;6.962;2023-06-22T13:00:51;9.40;;;8.40;;
5898;SDS011;2975;50.956;6.962;2023-06-22T13:03:17;9.50;;;8.15;;
5898;SDS011;2975;50.956;6.962;2023-06-22T13:05:43;11.38;;;8.73;;
5898;SDS011;2975;50.956;6.962;2023-06-22T13:08:08;9.75;;;8.48;;
5898;SDS011;2975;50.956;6.962;2023-06-22T13:10:35;9.68;;;8.60;;
5898;SDS011;2975;50.956;6.962;2023-06-22T13:13:01;8.70;;;7.53;;
5898;SDS011;2975;50.956;6.962;2023-06-22T13:15:27;8.82;;;7.50;;
5898;SDS011;2975;50.956;6.962;2023-06-22T13:17:53;9.43;;;8.07;;
5898;SDS011;2975;50.956;6.962;2023-06-22T13:20:19;8.52;;;7.63;;
5898;SDS011;2975;50.956;6.962;2023-06-22T13:22:45;8.85;;;7.28;;
5898;SDS011;2975;50.956;6.962;2023-06-22T13:25:10;10.43;;;8.75;;
5898;SDS011;2975;50.956;6.962;2023-06-22T13:27:40;10.38;;;7.57;;
5898;SDS011;2975;50.956;6.962;2023-06-22T13:30:06;9.02;;;6.70;;
5898;SDS011;2975;50.956;6.962;2023-06-22T13:32:33;8.57;;;6.75;;
5898;SDS011;2975;50.956;6.962;2023-06-22T13:34:59;7.53;;;6.82;;
5898;SDS011;2975;50.956;6.962;2023-06-22T13:37:25;7.00;;;5.43;;
5898;SDS011;2975;50.956;6.962;2023-06-22T13:39:51;7.75;;;6.50;;
5898;SDS011;2975;50.956;6.962;2023-06-22T13:42:16;8.52;;;6.22;;
5898;SDS011;2975;50.956;6.962;2023-06-22T13:44:42;6.47;;;5.88;;
5898;SDS011;2975;50.956;6.962;2023-06-22T13:47:08;6.15;;;5.53;;
5898;SDS011;2975;50.956;6.962;2023-06-22T13:49:33;5.70;;;5.20;;
5898;SDS011;2975;50.956;6.962;2023-06-22T13:51:59;4.75;;;4.35;;
5898;SDS011;2975;50.956;6.962;2023-06-22T13:54:25;7.40;;;5.80;;
5898;SDS011;2975;50.956;6.962;2023-06-22T13:56:51;5.75;;;5.15;;
5898;SDS011;2975;50.956;6.962;2023-06-22T13:59:16;5.25;;;4.75;;
5898;SDS011;2975;50.956;6.962;2023-06-22T14:01:42;4.40;;;4.00;;
5898;SDS011;2975;50.956;6.962;2023-06-22T14:04:08;5.55;;;4.97;;
5898;SDS011;2975;50.956;6.962;2023-06-22T14:06:34;4.50;;;4.00;;
5898;SDS011;2975;50.956;6.962;2023-06-22T14:08:59;3.90;;;3.33;;
5898;SDS011;2975;50.956;6.962;2023-06-22T14:11:25;3.75;;;3.45;;
5898;SDS011;2975;50.956;6.962;2023-06-22T14:13:50;4.22;;;3.90;;
5898;SDS011;2975;50.956;6.962;2023-06-22T14:16:16;4.35;;;3.95;;
5898;SDS011;2975;50.956;6.962;2023-06-22T14:18:42;4.82;;;3.88;;
5898;SDS011;2975;50.956;6.962;2023-06-22T14:21:07;3.75;;;3.45;;
5898;SDS011;2975;50.956;6.962;2023-06-22T14:23:33;4.25;;;3.85;;
5898;SDS011;2975;50.956;6.962;2023-06-22T14:25:59;5.13;;;4.20;;
5898;SDS011;2975;50.956;6.962;2023-06-22T14:28:24;4.40;;;4.00;;
5898;SDS011;2975;50.956;6.962;2023-06-22T14:30:50;4.45;;;4.05;;
5898;SDS011;2975;50.956;6.962;2023-06-22T14:33:16;4.43;;;4.03;;
5898;SDS011;2975;50.956;6.962;2023-06-22T14:35:41;4.80;;;3.88;;
5898;SDS011;2975;50.956;6.962;2023-06-22T14:38:07;6.50;;;4.78;;
5898;SDS011;2975;50.956;6.962;2023-06-22T14:40:32;7.10;;;4.22;;
5898;SDS011;2975;50.956;6.962;2023-06-22T14:43:01;4.97;;;4.20;;
5898;SDS011;2975;50.956;6.962;2023-06-22T14:45:26;4.55;;;3.95;;
5898;SDS011;2975;50.956;6.962;2023-06-22T14:47:52;4.25;;;3.85;;
5898;SDS011;2975;50.956;6.962;2023-06-22T14:50:17;4.20;;;3.80;;
5898;SDS011;2975;50.956;6.962;2023-06-22T14:52:43;5.28;;;3.60;;
5898;SDS011;2975;50.956;6.962;2023-06-22T14:55:09;4.32;;;3.92;;
5898;SDS011;2975;50.956;6.962;2023-06-22T14:57:34;4.70;;;3.90;;
5898;SDS011;2975;50.956;6.962;2023-06-22T15:00:00;5.38;;;3.85;;
5898;SDS011;2975;50.956;6.962;2023-06-22T15:02:27;6.32;;;3.80;;
5898;SDS011;2975;50.956;6.962;2023-06-22T15:04:53;6.35;;;4.45;;
5898;SDS011;2975;50.956;6.962;2023-06-22T15:07:19;5.55;;;4.70;;
5898;SDS011;2975;50.956;6.962;2023-06-22T15:09:45;6.75;;;4.93;;
5898;SDS011;2975;50.956;6.962;2023-06-22T15:12:10;7.80;;;4.68;;
5898;SDS011;2975;50.956;6.962;2023-06-22T15:14:40;6.60;;;5.15;;